Time;durP1;ratioP1;P1;durP2;ratioP2;P2;SDS_P1;SDS_P2;PMS_P1;PMS_P2;Temp;Humidity;BMP_temperature;BMP_pressure;BME280_temperature;BME280_humidity;BME280_pressure;Samples;Min_cycle;Max_cycle;Signal;HPM_P1;HPM_P2
2020/12/24 00:00:54;;;;;;;28.20;16.10;;;;;;;0.51;93.96;99121.83;1809665;79;21005;-72
2020/12/24 00:03:24;;;;;;;28.80;16.35;;;;;;;0.50;94.02;99130.03;1815426;77;22362;-71
2020/12/24 00:05:53;;;;;;;31.42;17.27;;;;;;;0.53;94.07;99134.44;1815327;77;20938;-71
2020/12/24 00:08:22;;;;;;;31.95;17.57;;;;;;;0.57;94.13;99137.19;1811320;79;20927;-72
2020/12/24 00:10:50;;;;;;;29.35;16.82;;;;;;;0.62;94.19;99167.19;1783162;79;20926;-72
2020/12/24 00:13:19;;;;;;;31.30;16.40;;;;;;;0.69;94.25;99170.45;1785307;79;20973;-71
2020/12/24 00:15:47;;;;;;;32.42;17.45;;;;;;;0.76;94.33;99171.53;1783215;79;21369;-71
2020/12/24 00:18:17;;;;;;;30.57;16.73;;;;;;;0.84;94.37;99175.27;1795587;79;20907;-71
2020/12/24 00:20:46;;;;;;;28.75;17.12;;;;;;;0.93;94.38;99182.05;1793422;78;20962;-71
2020/12/24 00:23:14;;;;;;;31.17;17.92;;;;;;;0.99;94.42;99181.40;1784540;79;20977;-72
2020/12/24 00:25:44;;;;;;;27.85;15.78;;;;;;;1.04;94.41;99187.20;1815558;77;20962;-71
2020/12/24 00:28:14;;;;;;;29.63;16.07;;;;;;;1.10;94.39;99181.32;1815512;77;22170;-71
2020/12/24 00:30:44;;;;;;;25.88;16.20;;;;;;;1.16;94.37;99188.01;1814292;77;20962;-72
2020/12/24 00:33:14;;;;;;;27.77;16.17;;;;;;;1.20;94.35;99180.78;1798608;79;20986;-72
2020/12/24 00:35:43;;;;;;;26.52;16.30;;;;;;;1.24;94.31;99178.32;1814378;77;20970;-72
2020/12/24 00:38:11;;;;;;;27.07;15.93;;;;;;;1.27;94.29;99161.94;1811158;79;21025;-71
2020/12/24 00:40:40;;;;;;;28.32;16.70;;;;;;;1.32;94.24;99168.16;1814695;79;21181;-72
2020/12/24 00:43:09;;;;;;;27.60;18.05;;;;;;;1.36;94.18;99176.52;1811624;77;21488;-72
2020/12/24 00:45:38;;;;;;;28.80;17.75;;;;;;;1.38;94.13;99175.27;1814924;77;20942;-71
2020/12/24 00:48:07;;;;;;;28.95;17.80;;;;;;;1.41;94.08;99168.86;1810219;77;20934;-72
2020/12/24 00:50:38;;;;;;;29.35;18.07;;;;;;;1.42;94.03;99157.63;1783933;79;20938;-72
2020/12/24 00:53:06;;;;;;;32.00;19.45;;;;;;;1.46;93.97;99157.80;1785839;79;22099;-72
2020/12/24 00:55:36;;;;;;;28.47;18.32;;;;;;;1.49;93.93;99154.41;1783294;79;20914;-72
2020/12/24 00:58:04;;;;;;;31.80;18.80;;;;;;;1.50;93.85;99156.17;1754768;80;20958;-72
2020/12/24 01:00:34;;;;;;;30.62;18.45;;;;;;;1.48;93.79;99158.72;1767338;79;20934;-71
2020/12/24 01:03:02;;;;;;;29.57;18.17;;;;;;;1.48;93.73;99152.64;1786104;77;20922;-73
2020/12/24 01:05:33;;;;;;;29.95;17.90;;;;;;;1.48;93.66;99148.33;1787671;79;22198;-72
2020/12/24 01:08:02;;;;;;;26.87;17.62;;;;;;;1.45;93.58;99148.66;1783406;79;20938;-71
2020/12/24 01:10:31;;;;;;;31.55;18.25;;;;;;;1.42;93.53;99151.12;1785383;79;20937;-72
2020/12/24 01:13:00;;;;;;;27.02;16.07;;;;;;;1.41;93.53;99144.16;1785715;79;20911;-71
2020/12/24 01:15:29;;;;;;;26.02;15.83;;;;;;;1.39;93.53;99144.12;1783425;79;21480;-72
2020/12/24 01:17:57;;;;;;;25.85;15.72;;;;;;;1.40;93.55;99150.20;1784144;79;21209;-73
2020/12/24 01:20:26;;;;;;;26.33;16.12;;;;;;;1.42;93.53;99136.83;1787498;79;20949;-73
2020/12/24 01:22:55;;;;;;;26.93;16.20;;;;;;;1.44;93.53;99133.89;1812651;79;20938;-72
2020/12/24 01:25:25;;;;;;;27.85;16.40;;;;;;;1.44;93.54;99110.50;1815199;77;20973;-72
2020/12/24 01:27:55;;;;;;;26.10;14.63;;;;;;;1.39;93.55;99105.13;1814917;77;20919;-71
2020/12/24 01:30:24;;;;;;;26.23;16.25;;;;;;;1.34;93.48;99101.94;1812655;77;21228;-72
2020/12/24 01:32:54;;;;;;;24.75;15.68;;;;;;;1.33;93.53;99113.17;1814966;77;21084;-72
2020/12/24 01:35:24;;;;;;;27.17;16.25;;;;;;;1.34;93.56;99121.43;1813097;77;20942;-72
2020/12/24 01:37:52;;;;;;;28.30;15.78;;;;;;;1.36;93.61;99121.06;1814932;77;20903;-72
2020/12/24 01:40:24;;;;;;;27.40;15.23;;;;;;;1.39;93.68;99113.34;1785148;79;20911;-72
2020/12/24 01:42:53;;;;;;;27.50;16.02;;;;;;;1.43;93.75;99113.94;1815455;77;21363;-71
2020/12/24 01:45:24;;;;;;;27.22;15.68;;;;;;;1.46;93.78;99112.72;1815087;77;21520;-71
2020/12/24 01:47:55;;;;;;;31.12;16.30;;;;;;;1.47;93.87;99093.69;1803910;77;20954;-71
2020/12/24 01:50:27;;;;;;;28.23;16.17;;;;;;;1.48;93.97;99099.36;1783670;79;20910;-71
2020/12/24 01:52:56;;;;;;;26.97;16.05;;;;;;;1.48;94.02;99098.05;1785965;79;21059;-72
2020/12/24 01:55:25;;;;;;;30.80;16.82;;;;;;;1.48;94.03;99095.45;1755442;80;21471;-71
2020/12/24 01:57:55;;;;;;;31.45;16.40;;;;;;;1.49;94.10;99093.31;1784799;79;20969;-71
2020/12/24 02:00:24;;;;;;;31.20;16.60;;;;;;;1.47;94.25;99093.27;1806348;79;21092;-72
2020/12/24 02:02:54;;;;;;;29.87;17.25;;;;;;;1.48;94.46;99083.34;1783552;79;20923;-71
2020/12/24 02:05:25;;;;;;;33.20;17.10;;;;;;;1.46;94.58;99081.12;1783660;79;21077;-71
2020/12/24 02:07:59;;;;;;;28.20;16.60;;;;;;;1.47;94.69;99088.49;1785111;79;20945;-71
2020/12/24 02:10:30;;;;;;;27.62;12.93;;;;;;;1.48;94.83;99090.25;1783701;79;20946;-72
2020/12/24 02:12:59;;;;;;;30.57;16.80;;;;;;;1.50;94.99;99095.96;1783475;80;21080;-71
2020/12/24 02:15:30;;;;;;;30.72;17.40;;;;;;;1.50;95.16;99089.46;1783576;79;21495;-71
2020/12/24 02:18:00;;;;;;;32.33;17.32;;;;;;;1.52;95.29;99092.98;1772703;79;23038;-71
2020/12/24 02:20:29;;;;;;;36.58;17.50;;;;;;;1.53;95.39;99093.87;1774725;78;21294;-71
2020/12/24 02:22:58;;;;;;;36.77;17.57;;;;;;;1.48;95.44;99092.44;1797354;78;20947;-72
2020/12/24 02:25:27;;;;;;;28.73;17.05;;;;;;;1.46;95.47;99088.91;1772518;78;20911;-71
2020/12/24 02:27:56;;;;;;;31.62;17.55;;;;;;;1.48;95.50;99091.55;1771092;79;21528;-71
2020/12/24 02:30:24;;;;;;;34.75;18.45;;;;;;;1.49;95.52;99089.42;1762704;78;21120;-71
2020/12/24 02:32:53;;;;;;;35.20;18.87;;;;;;;1.49;95.55;99092.02;1775018;78;21940;-72
2020/12/24 02:35:21;;;;;;;40.35;17.80;;;;;;;1.48;95.56;99093.73;1795588;78;20990;-71
2020/12/24 02:37:51;;;;;;;34.18;16.97;;;;;;;1.47;95.55;99091.97;1793393;78;21073;-72
2020/12/24 02:40:20;;;;;;;32.40;18.75;;;;;;;1.47;95.56;99088.08;1797695;78;20907;-71
2020/12/24 02:42:49;;;;;;;33.23;18.02;;;;;;;1.47;95.59;99085.89;1791956;78;20935;-72
2020/12/24 02:45:18;;;;;;;32.17;17.60;;;;;;;1.45;95.61;99086.27;1768779;79;21378;-71
2020/12/24 02:47:46;;;;;;;33.20;17.45;;;;;;;1.42;95.65;99097.46;1768828;79;20958;-72
2020/12/24 02:50:15;;;;;;;34.80;18.87;;;;;;;1.41;95.68;99086.98;1780551;79;21528;-72
2020/12/24 02:52:44;;;;;;;34.53;18.32;;;;;;;1.43;95.73;99081.45;1797853;79;20919;-71
2020/12/24 02:55:13;;;;;;;39.83;19.00;;;;;;;1.44;95.76;99086.69;1797686;78;21037;-71
2020/12/24 02:57:42;;;;;;;31.50;17.17;;;;;;;1.45;95.81;99087.57;1797638;78;21365;-71
2020/12/24 03:00:11;;;;;;;30.43;15.78;;;;;;;1.45;95.81;99084.55;1785468;79;20903;-72
2020/12/24 03:02:40;;;;;;;31.73;17.92;;;;;;;1.45;95.81;99084.55;1767553;79;20899;-72
2020/12/24 03:05:09;;;;;;;32.85;17.45;;;;;;;1.46;95.82;99093.23;1766360;81;20940;-74
2020/12/24 03:07:38;;;;;;;34.25;18.12;;;;;;;1.46;95.83;99090.62;1782284;79;20918;-71
2020/12/24 03:10:07;;;;;;;31.25;18.55;;;;;;;1.41;95.78;99085.27;1771443;78;22155;-70
2020/12/24 03:12:37;;;;;;;29.27;16.73;;;;;;;1.37;95.69;99074.73;1797720;78;20950;-71
2020/12/24 03:15:07;;;;;;;30.72;17.85;;;;;;;1.31;95.62;99071.55;1794890;78;20939;-71
2020/12/24 03:17:36;;;;;;;30.05;17.05;;;;;;;1.26;95.56;99075.31;1786370;79;20915;-71
2020/12/24 03:20:10;;;;;;;30.12;17.12;;;;;;;1.19;95.47;99073.37;1777853;79;21061;-71
2020/12/24 03:22:38;;;;;;;32.48;16.45;;;;;;;1.18;95.49;99077.22;1774827;79;21493;-72
2020/12/24 03:25:07;;;;;;;31.42;16.95;;;;;;;1.18;95.51;99078.52;1782649;79;21097;-71
2020/12/24 03:27:35;;;;;;;27.45;16.07;;;;;;;1.14;95.50;99073.65;1781099;79;20967;-71
2020/12/24 03:30:05;;;;;;;32.03;17.05;;;;;;;1.03;95.45;99068.55;1776829;79;21069;-71
2020/12/24 03:32:35;;;;;;;31.27;16.45;;;;;;;0.92;95.41;99066.02;1783160;79;21127;-71
2020/12/24 03:35:05;;;;;;;28.83;15.70;;;;;;;0.80;95.40;99066.52;1780966;79;21508;-71
2020/12/24 03:37:35;;;;;;;30.75;16.15;;;;;;;0.73;95.44;99063.27;1776432;79;21487;-71
2020/12/24 03:40:04;;;;;;;31.33;16.75;;;;;;;0.69;95.49;99067.91;1783962;78;20943;-72
2020/12/24 03:42:34;;;;;;;39.15;16.95;;;;;;;0.61;95.53;99068.08;1785406;78;21097;-71
2020/12/24 03:45:03;;;;;;;30.08;16.25;;;;;;;0.52;95.60;99066.08;1730510;81;21898;-71
2020/12/24 03:47:31;;;;;;;27.98;15.20;;;;;;;0.46;95.67;99066.27;1794580;78;21521;-71
2020/12/24 03:50:00;;;;;;;27.05;15.08;;;;;;;0.42;95.76;99061.39;1800177;79;21086;-70
2020/12/24 03:52:30;;;;;;;25.75;15.58;;;;;;;0.42;95.87;99063.10;1781140;79;20895;-71
2020/12/24 03:54:59;;;;;;;27.90;15.35;;;;;;;0.37;95.98;99059.48;1772451;79;20930;-70
2020/12/24 03:57:28;;;;;;;29.32;15.15;;;;;;;0.29;96.10;99060.11;1772627;81;21044;-72
2020/12/24 03:59:56;;;;;;;26.10;15.30;;;;;;;0.27;96.25;99066.97;1785126;78;21373;-72
2020/12/24 04:02:25;;;;;;;23.95;14.53;;;;;;;0.24;96.36;99058.20;1804215;79;20943;-73
2020/12/24 04:04:54;;;;;;;26.37;14.98;;;;;;;0.23;96.51;99049.95;1804362;78;20927;-71
2020/12/24 04:07:22;;;;;;;25.05;14.13;;;;;;;0.23;96.67;99056.44;1775527;79;21473;-71
2020/12/24 04:09:55;;;;;;;26.82;14.75;;;;;;;0.20;96.83;99044.66;1794521;78;21045;-72
2020/12/24 04:12:26;;;;;;;29.10;16.00;;;;;;;0.21;97.00;99052.91;1772783;79;21191;-64
2020/12/24 04:14:55;;;;;;;30.95;15.15;;;;;;;0.21;97.18;99049.90;1772581;79;21476;-70
2020/12/24 04:17:23;;;;;;;29.12;14.68;;;;;;;0.22;97.32;99053.38;1772467;80;21052;-72
2020/12/24 04:19:52;;;;;;;23.12;14.05;;;;;;;0.23;97.51;99053.84;1774090;79;20962;-70
2020/12/24 04:22:20;;;;;;;24.02;13.98;;;;;;;0.24;97.69;99067.28;1804292;79;20923;-72
2020/12/24 04:24:49;;;;;;;25.10;13.40;;;;;;;0.26;97.84;99069.51;1803601;79;22251;-73
2020/12/24 04:27:17;;;;;;;21.23;12.90;;;;;;;0.30;97.96;99064.89;1778955;79;20970;-72
2020/12/24 04:29:46;;;;;;;28.42;13.30;;;;;;;0.36;98.12;99066.38;1799223;79;20899;-72
2020/12/24 04:32:15;;;;;;;23.00;13.20;;;;;;;0.36;98.23;99062.49;1772557;81;20935;-68
2020/12/24 04:34:43;;;;;;;23.27;13.05;;;;;;;0.37;98.40;99061.66;1772679;79;21053;-67
2020/12/24 04:37:11;;;;;;;20.82;13.15;;;;;;;0.37;98.49;99060.78;1781276;79;21194;-68
2020/12/24 04:39:39;;;;;;;19.80;12.15;;;;;;;0.36;98.59;99053.41;1799547;78;21133;-68
2020/12/24 04:42:08;;;;;;;27.13;12.88;;;;;;;0.35;98.73;99052.95;1803501;78;21528;-67
2020/12/24 04:44:37;;;;;;;19.20;12.25;;;;;;;0.35;98.86;99054.24;1804117;78;20966;-66
2020/12/24 04:47:06;;;;;;;23.00;12.70;;;;;;;0.32;98.99;99045.06;1774000;79;21057;-63
2020/12/24 04:49:35;;;;;;;18.45;11.43;;;;;;;0.30;99.10;99041.12;1772519;79;21412;-67
2020/12/24 04:52:03;;;;;;;18.30;11.33;;;;;;;0.31;99.24;99044.18;1772392;81;20919;-66
2020/12/24 04:54:32;;;;;;;24.30;12.35;;;;;;;0.30;99.34;99042.42;1771742;79;21534;-66
2020/12/24 04:57:09;;;;;;;21.60;10.88;;;;;;;0.30;99.46;99034.63;1771091;79;21096;-66
2020/12/24 04:59:37;;;;;;;23.15;11.00;;;;;;;0.30;99.58;99031.16;1771727;80;21199;-66
2020/12/24 05:02:05;;;;;;;23.65;11.38;;;;;;;0.28;99.66;99028.52;1771675;79;21367;-66
2020/12/24 05:04:33;;;;;;;16.85;10.45;;;;;;;0.28;99.77;99023.74;1771668;79;21113;-66
2020/12/24 05:07:07;;;;;;;23.27;10.78;;;;;;;0.29;99.85;99026.39;1771856;81;21537;-66
2020/12/24 05:09:36;;;;;;;20.32;10.03;;;;;;;0.29;99.92;99021.20;1772451;81;21055;-66
2020/12/24 05:12:06;;;;;;;17.62;9.50;;;;;;;0.29;100.00;99022.91;1772601;79;20922;-65
2020/12/24 05:14:35;;;;;;;14.65;8.53;;;;;;;0.27;100.00;99020.27;1733313;81;21385;-66
2020/12/24 05:17:07;;;;;;;24.15;10.55;;;;;;;0.25;100.00;99013.27;1744016;80;21275;-66
2020/12/24 05:19:49;;;;;;;18.57;9.23;;;;;;;0.22;100.00;99015.77;1766445;80;20947;-66
2020/12/24 05:22:19;;;;;;;23.57;9.45;;;;;;;0.18;100.00;99016.08;1714528;82;20966;-66
2020/12/24 05:24:49;;;;;;;13.93;8.70;;;;;;;0.17;100.00;99011.72;1709921;82;20963;-66
2020/12/24 05:27:22;;;;;;;16.97;9.45;;;;;;;0.16;100.00;99008.66;1709825;82;21376;-65
2020/12/24 05:29:51;;;;;;;14.18;8.68;;;;;;;0.16;100.00;99011.26;1709765;82;20970;-67
2020/12/24 05:32:29;;;;;;;15.65;9.28;;;;;;;0.14;100.00;99014.63;1709887;82;20963;-66
2020/12/24 05:35:09;;;;;;;17.90;9.33;;;;;;;0.13;100.00;99012.88;1709781;82;21386;-65
2020/12/24 05:37:39;;;;;;;13.93;8.55;;;;;;;0.13;100.00;99001.20;1709889;82;20911;-65
2020/12/24 05:40:28;;;;;;;13.25;8.35;;;;;;;0.10;100.00;99005.88;1709899;82;21372;-65
2020/12/24 05:43:01;;;;;;;13.70;8.73;;;;;;;0.08;100.00;99007.95;1710035;82;21524;-66
2020/12/24 05:45:32;;;;;;;13.15;8.10;;;;;;;0.08;100.00;99003.64;1710058;82;20963;-66
2020/12/24 05:48:13;;;;;;;15.05;8.90;;;;;;;0.04;100.00;99000.90;1710098;82;21485;-66
2020/12/24 05:50:43;;;;;;;15.50;9.03;;;;;;;-0.01;100.00;98997.70;1709938;84;20930;-66
2020/12/24 05:53:15;;;;;;;16.37;9.20;;;;;;;-0.01;100.00;99002.02;1709951;82;21513;-66
2020/12/24 05:55:43;;;;;;;23.55;8.70;;;;;;;-0.01;100.00;98995.53;1709992;82;21105;-67
2020/12/24 05:58:11;;;;;;;13.65;8.60;;;;;;;-0.02;100.00;98988.17;1710036;82;21485;-66
2020/12/24 06:00:41;;;;;;;13.38;8.58;;;;;;;-0.03;100.00;98989.00;1709970;82;21505;-66
2020/12/24 06:03:19;;;;;;;15.48;8.30;;;;;;;-0.01;100.00;98992.52;1709964;82;20959;-65
2020/12/24 06:06:08;;;;;;;13.75;8.30;;;;;;;0.01;100.00;98992.61;1709956;82;20951;-65
2020/12/24 06:08:36;;;;;;;15.20;7.25;;;;;;;0.02;100.00;98996.08;1709858;84;20993;-66
2020/12/24 06:11:07;;;;;;;14.00;7.83;;;;;;;0.02;100.00;98998.26;1667141;84;21085;-66
2020/12/24 06:13:43;;;;;;;13.95;8.65;;;;;;;0.03;100.00;98996.13;1709906;82;20963;-65
2020/12/24 06:16:13;;;;;;;13.70;8.30;;;;;;;0.04;100.00;98997.89;1709906;82;21138;-65
2020/12/24 06:18:44;;;;;;;16.70;8.98;;;;;;;0.02;100.00;98989.18;1713331;82;21472;-66
2020/12/24 06:21:19;;;;;;;15.78;9.05;;;;;;;0.02;100.00;98986.59;1715056;82;20982;-66
2020/12/24 06:23:56;;;;;;;15.88;8.48;;;;;;;0.04;100.00;98998.31;1774582;79;21563;-66
2020/12/24 06:26:28;;;;;;;17.70;8.63;;;;;;;0.05;100.00;98994.47;1737944;81;20938;-65
2020/12/24 06:29:02;;;;;;;13.78;8.30;;;;;;;0.08;100.00;98995.86;1774802;80;20942;-65
2020/12/24 06:31:30;;;;;;;18.82;8.63;;;;;;;0.10;100.00;98990.73;1774710;79;22251;-66
2020/12/24 06:33:59;;;;;;;13.93;8.03;;;;;;;0.10;100.00;98988.13;1744715;79;20922;-67
2020/12/24 06:36:35;;;;;;;14.30;8.55;;;;;;;0.11;100.00;98986.89;1741359;80;21496;-66
2020/12/24 06:39:04;;;;;;;13.53;7.62;;;;;;;0.12;100.00;98988.65;1774628;79;21073;-66
2020/12/24 06:41:38;;;;;;;14.25;7.60;;;;;;;0.14;100.00;98994.77;1737834;81;20875;-65
2020/12/24 06:44:06;;;;;;;12.53;7.37;;;;;;;0.14;100.00;98990.88;1774597;79;21412;-66
2020/12/24 06:46:59;;;;;;;12.88;8.03;;;;;;;0.16;100.00;98994.40;1774518;79;20958;-66
2020/12/24 06:49:31;;;;;;;14.07;8.80;;;;;;;0.16;100.00;98989.21;1737967;81;20938;-66
2020/12/24 06:51:59;;;;;;;16.35;8.48;;;;;;;0.18;100.00;98983.66;1774738;79;21080;-66
2020/12/24 06:54:28;;;;;;;14.33;8.00;;;;;;;0.19;100.00;98981.53;1774635;80;20946;-66
2020/12/24 06:57:24;;;;;;;13.20;8.08;;;;;;;0.19;100.00;98974.16;1737843;81;21259;-65
2020/12/24 07:00:21;;;;;;;13.58;8.50;;;;;;;0.18;100.00;98973.70;1774498;80;21001;-65
2020/12/24 07:02:51;;;;;;;14.53;8.50;;;;;;;0.18;100.00;98968.09;1774572;80;20946;-66
2020/12/24 07:05:44;;;;;;;15.20;8.08;;;;;;;0.18;100.00;98960.73;1774550;80;20942;-66
2020/12/24 07:08:31;;;;;;;;;;;;;;;0.17;100.00;98961.56;1740498;81;21513;-65
2020/12/24 07:10:59;;;;;;;14.28;8.43;;;;;;;0.15;100.00;98952.44;1700736;83;21270;-66
2020/12/24 07:13:43;;;;;;;18.48;9.45;;;;;;;0.15;100.00;98949.84;1737882;81;21489;-66
2020/12/24 07:16:15;;;;;;;15.83;9.48;;;;;;;0.16;100.00;98944.23;1774516;80;20942;-66
2020/12/24 07:18:42;;;;;;;15.57;8.67;;;;;;;0.14;100.00;98944.19;1779351;79;20902;-66
2020/12/24 07:21:11;;;;;;;16.07;9.58;;;;;;;0.15;100.00;98949.84;1783369;80;21229;-66
2020/12/24 07:23:40;;;;;;;17.73;9.65;;;;;;;0.18;100.00;98949.05;1783399;80;21367;-66
2020/12/24 07:26:10;;;;;;;18.57;10.35;;;;;;;0.20;100.00;98952.16;1743620;81;21476;-65
2020/12/24 07:28:40;;;;;;;17.60;10.30;;;;;;;0.23;100.00;98956.56;1783391;80;21476;-65
2020/12/24 07:31:11;;;;;;;16.02;9.35;;;;;;;0.25;100.00;98957.49;1783335;79;20930;-66
2020/12/24 07:33:45;;;;;;;17.25;10.58;;;;;;;0.24;100.00;98948.83;1783481;79;21452;-66
2020/12/24 07:36:14;;;;;;;15.03;9.63;;;;;;;0.26;100.00;98947.58;1783425;79;21472;-65
2020/12/24 07:38:42;;;;;;;17.20;10.13;;;;;;;0.25;100.00;98949.30;1783305;80;20934;-66
2020/12/24 07:41:16;;;;;;;17.52;10.10;;;;;;;0.25;100.00;98949.30;1783428;80;21322;-66
2020/12/24 07:43:45;;;;;;;17.85;9.85;;;;;;;0.24;100.00;98949.25;1783422;80;21468;-65
2020/12/24 07:46:14;;;;;;;14.40;9.15;;;;;;;0.24;100.00;98952.72;1743620;81;20922;-66
2020/12/24 07:48:43;;;;;;;15.30;8.75;;;;;;;0.22;100.00;98953.09;1783477;80;22163;-66
2020/12/24 07:51:11;;;;;;;15.08;8.88;;;;;;;0.23;100.00;98961.34;1743508;81;20926;-66
2020/12/24 07:53:40;;;;;;;15.75;9.45;;;;;;;0.23;100.00;98961.75;1783314;79;20945;-66
2020/12/24 07:56:08;;;;;;;18.55;9.90;;;;;;;0.24;100.00;98968.28;1743618;81;21051;-66
2020/12/24 07:58:37;;;;;;;15.65;9.78;;;;;;;0.25;100.00;98974.36;1783367;80;20918;-65
2020/12/24 08:01:06;;;;;;;17.55;9.55;;;;;;;0.27;100.00;98972.69;1743630;82;21213;-65
2020/12/24 08:03:34;;;;;;;14.35;8.70;;;;;;;0.30;100.00;98976.68;1783326;80;20949;-66
2020/12/24 08:06:05;;;;;;;17.10;10.40;;;;;;;0.29;100.00;98978.81;1783325;80;20958;-65
2020/12/24 08:08:35;;;;;;;17.35;9.98;;;;;;;0.28;100.00;98971.44;1783326;79;21041;-66
2020/12/24 08:11:09;;;;;;;17.65;10.43;;;;;;;0.29;100.00;98974.50;1783288;79;21508;-65
2020/12/24 08:13:37;;;;;;;18.57;10.72;;;;;;;0.30;100.00;98968.48;1783369;80;21327;-65
2020/12/24 08:16:07;;;;;;;16.40;9.65;;;;;;;0.28;100.00;98964.95;1782772;80;20982;-66
2020/12/24 08:18:39;;;;;;;16.45;10.43;;;;;;;0.31;100.00;98968.94;1733668;81;20990;-65
2020/12/24 08:21:19;;;;;;;19.80;11.22;;;;;;;0.32;100.00;98968.53;1667175;84;21094;-66
2020/12/24 08:23:52;;;;;;;18.82;10.72;;;;;;;0.33;100.00;98958.61;1709222;82;21105;-66
2020/12/24 08:26:21;;;;;;;20.90;11.00;;;;;;;0.37;100.00;98954.39;1766335;81;21191;-66
2020/12/24 08:28:57;;;;;;;20.12;11.05;;;;;;;0.41;100.00;98959.73;1766362;81;21482;-66
2020/12/24 08:31:26;;;;;;;18.62;11.10;;;;;;;0.41;100.00;98954.95;1766352;80;21509;-66
2020/12/24 08:33:54;;;;;;;18.45;10.75;;;;;;;0.43;100.00;98945.09;1766398;80;21081;-65
2020/12/24 08:36:26;;;;;;;18.50;10.93;;;;;;;0.44;100.00;98940.36;1766310;80;21485;-66
2020/12/24 08:39:09;;;;;;;20.30;12.40;;;;;;;0.45;100.00;98935.63;1766428;80;23060;-66
2020/12/24 08:41:56;;;;;;;20.97;12.05;;;;;;;0.46;100.00;98923.12;1765758;81;20943;-66
2020/12/24 08:44:24;;;;;;;18.55;11.40;;;;;;;0.47;100.00;98917.52;1766404;81;20938;-66
2020/12/24 08:47:09;;;;;;;19.05;11.78;;;;;;;0.46;100.00;98901.48;1766313;81;20914;-65
2020/12/24 08:49:42;;;;;;;19.90;11.50;;;;;;;0.48;100.00;98906.33;1766330;81;20966;-65
2020/12/24 08:52:18;;;;;;;22.48;12.37;;;;;;;0.47;100.00;98907.13;1766343;80;21356;-66
2020/12/24 08:55:06;;;;;;;20.55;11.95;;;;;;;0.49;100.00;98904.20;1766331;80;21488;-66
2020/12/24 08:57:35;;;;;;;21.25;12.13;;;;;;;0.51;100.00;98898.64;1766263;81;21639;-65
2020/12/24 09:00:08;;;;;;;21.65;13.18;;;;;;;0.48;100.00;98896.83;1766277;81;21046;-66
2020/12/24 09:02:37;;;;;;;24.55;12.82;;;;;;;0.47;100.00;98895.04;1766062;81;21548;-65
2020/12/24 09:05:06;;;;;;;22.17;13.00;;;;;;;0.45;100.00;98899.30;1766271;81;21375;-65
2020/12/24 09:07:37;;;;;;;23.35;13.03;;;;;;;0.45;100.00;98891.52;1766342;81;21522;-66
2020/12/24 09:10:20;;;;;;;21.60;12.53;;;;;;;0.47;100.00;98890.27;1766258;80;21017;-66
2020/12/24 09:12:55;;;;;;;23.32;14.47;;;;;;;0.49;100.00;98891.22;1766119;80;21504;-66
2020/12/24 09:15:27;;;;;;;26.23;14.75;;;;;;;0.48;100.00;98889.05;1766314;80;20922;-66
2020/12/24 09:17:57;;;;;;;23.30;13.60;;;;;;;0.50;100.00;98883.91;1766544;81;21204;-66
2020/12/24 09:20:30;;;;;;;22.87;13.62;;;;;;;0.52;100.00;98883.11;1766143;80;20946;-66
2020/12/24 09:23:01;;;;;;;24.15;13.98;;;;;;;0.55;100.00;98879.31;1766303;81;20938;-66
2020/12/24 09:25:42;;;;;;;25.20;14.70;;;;;;;0.55;100.00;98878.01;1766266;81;20876;-66
2020/12/24 09:28:25;;;;;;;25.00;13.68;;;;;;;0.55;100.00;98875.41;1766310;80;20959;-66
2020/12/24 09:31:01;;;;;;;24.18;14.10;;;;;;;0.53;100.00;98865.41;1766380;80;21191;-66
2020/12/24 09:33:29;;;;;;;25.52;14.20;;;;;;;0.53;100.00;98860.22;1766218;81;20938;-66
2020/12/24 09:35:58;;;;;;;25.27;14.68;;;;;;;0.54;100.00;98859.80;1766310;81;21464;-65
2020/12/24 09:38:26;;;;;;;24.10;14.30;;;;;;;0.55;100.00;98853.77;1766226;81;21513;-65
2020/12/24 09:40:54;;;;;;;24.72;14.53;;;;;;;0.57;100.00;98850.80;1766373;80;21460;-66
2020/12/24 09:43:23;;;;;;;23.98;14.55;;;;;;;0.57;100.00;98845.19;1766279;80;21198;-66
2020/12/24 09:45:51;;;;;;;27.22;14.93;;;;;;;0.60;100.00;98837.49;1766220;81;20939;-66
2020/12/24 09:48:20;;;;;;;24.05;13.30;;;;;;;0.62;100.00;98832.34;1766426;80;21363;-66
2020/12/24 09:50:48;;;;;;;27.10;15.13;;;;;;;0.63;100.00;98828.49;1766306;80;20923;-66
2020/12/24 09:53:16;;;;;;;23.35;14.15;;;;;;;0.65;100.00;98825.06;1766354;81;20929;-66
2020/12/24 09:55:45;;;;;;;27.80;14.75;;;;;;;0.67;100.00;98828.58;1766312;81;21198;-65
2020/12/24 09:58:13;;;;;;;23.80;14.75;;;;;;;0.69;100.00;98823.89;1766168;81;20939;-65
2020/12/24 10:00:41;;;;;;;24.52;14.50;;;;;;;0.69;100.00;98824.30;1766281;81;21251;-66
2020/12/24 10:03:10;;;;;;;22.77;13.88;;;;;;;0.70;100.00;98818.28;1766292;80;20907;-66
2020/12/24 10:05:38;;;;;;;23.42;14.35;;;;;;;0.73;100.00;98816.64;1766307;81;20935;-66
2020/12/24 10:08:06;;;;;;;24.32;14.60;;;;;;;0.74;100.00;98811.91;1766371;81;22266;-65
2020/12/24 10:10:35;;;;;;;23.65;15.23;;;;;;;0.72;100.00;98801.91;1766206;81;21481;-65
2020/12/24 10:13:03;;;;;;;25.72;15.60;;;;;;;0.74;100.00;98803.24;1766250;80;20891;-66
2020/12/24 10:15:31;;;;;;;25.72;14.73;;;;;;;0.75;100.00;98794.20;1766255;80;21041;-65
2020/12/24 10:18:00;;;;;;;24.02;14.38;;;;;;;0.78;100.00;98803.37;1766271;81;20875;-66
2020/12/24 10:20:29;;;;;;;24.67;14.87;;;;;;;0.79;100.00;98788.67;1766225;80;21335;-66
2020/12/24 10:22:57;;;;;;;29.92;15.88;;;;;;;0.81;100.00;98789.59;1766302;81;20962;-66
2020/12/24 10:25:26;;;;;;;25.75;14.55;;;;;;;0.84;100.00;98788.38;1766389;81;20942;-66
2020/12/24 10:27:55;;;;;;;25.15;13.93;;;;;;;0.83;100.00;98781.42;1766500;81;20947;-66
2020/12/24 10:30:23;;;;;;;23.92;14.43;;;;;;;0.83;100.00;98778.82;1766492;80;21085;-65
2020/12/24 10:32:51;;;;;;;25.77;14.70;;;;;;;0.84;100.00;98776.69;1766569;80;21501;-66
2020/12/24 10:35:19;;;;;;;29.82;15.68;;;;;;;0.83;100.00;98766.72;1766381;80;20999;-66
2020/12/24 10:37:48;;;;;;;23.30;14.73;;;;;;;0.85;100.00;98767.64;1766382;80;21560;-65
2020/12/24 10:40:16;;;;;;;25.12;13.93;;;;;;;0.87;100.00;98755.99;1766428;80;21065;-66
2020/12/24 10:42:46;;;;;;;28.60;15.90;;;;;;;0.90;100.00;98754.77;1766511;80;21049;-66
2020/12/24 10:45:14;;;;;;;26.93;15.53;;;;;;;0.91;100.00;98754.81;1766406;81;21327;-66
2020/12/24 10:47:43;;;;;;;26.00;15.58;;;;;;;0.92;100.00;98751.37;1766331;80;20943;-66
2020/12/24 10:50:11;;;;;;;28.27;16.12;;;;;;;0.97;100.00;98750.64;1766464;81;20935;-66
2020/12/24 10:52:39;;;;;;;24.43;13.98;;;;;;;0.98;100.00;98744.61;1766374;81;21488;-66
2020/12/24 10:55:09;;;;;;;27.40;15.38;;;;;;;0.99;100.00;98739.45;1766314;80;21085;-66
2020/12/24 10:57:37;;;;;;;27.42;15.28;;;;;;;1.02;100.00;98731.73;1766350;80;21505;-66
2020/12/24 11:00:07;;;;;;;28.30;15.50;;;;;;;1.03;100.00;98722.23;1766344;80;20951;-65
2020/12/24 11:02:35;;;;;;;24.45;15.60;;;;;;;1.05;100.00;98717.95;1766416;80;20915;-66
2020/12/24 11:05:04;;;;;;;28.15;14.98;;;;;;;1.06;100.00;98719.70;1766491;81;21473;-66
2020/12/24 11:07:33;;;;;;;26.93;15.55;;;;;;;1.09;100.00;98715.47;1766411;81;20919;-65
2020/12/24 11:10:02;;;;;;;25.48;15.25;;;;;;;1.09;100.00;98693.38;1766421;81;21198;-65
2020/12/24 11:12:31;;;;;;;27.82;15.15;;;;;;;1.10;100.00;98690.37;1766373;81;21073;-66
2020/12/24 11:14:59;;;;;;;26.33;15.60;;;;;;;1.12;100.00;98693.88;1766508;81;20944;-66
2020/12/24 11:17:28;;;;;;;27.32;16.10;;;;;;;1.14;100.00;98692.19;1766385;81;20931;-65
2020/12/24 11:19:58;;;;;;;25.43;13.78;;;;;;;1.16;100.00;98678.82;1774516;80;20934;-66
2020/12/24 11:22:26;;;;;;;26.45;14.95;;;;;;;1.17;100.00;98672.36;1783400;80;21204;-66
2020/12/24 11:24:54;;;;;;;23.87;13.28;;;;;;;1.17;100.00;98667.16;1783318;79;21029;-66
2020/12/24 11:27:23;;;;;;;25.90;14.50;;;;;;;1.18;100.00;98662.84;1783410;79;20930;-66
2020/12/24 11:29:51;;;;;;;23.18;14.40;;;;;;;1.19;100.00;98665.48;1783364;80;21053;-66
2020/12/24 11:32:20;;;;;;;25.15;14.23;;;;;;;1.21;100.00;98664.22;1783367;79;20934;-66
2020/12/24 11:34:48;;;;;;;26.93;15.03;;;;;;;1.22;100.00;98669.87;1783350;80;21324;-65
2020/12/24 11:37:19;;;;;;;25.55;15.18;;;;;;;1.25;100.00;98670.81;1783208;80;21092;-65